Toa Alta, Puerto Rico
Current Conditions -  °F | °C
As of 4:56 PM on Tuesday 27 Jan 2015 (Local Time) from TJSJ Reporting Station
Broken Clouds Broken Clouds  
Wind Chill: 85°   Ceiling: 6500
Heat Index: 90°   Visibility: 10mi
Dew Point: 71°   Wind: 7mph
Humidity: 63%   Direction: NA
Pressure: 29.96"   Gusts: NA
Location:  18.39°N, 66.24°W
Report Text: TJSJ 272056Z VRB06KT 10SM SCT040 BKN065 29/22 A2996 RMK AO2 SLP143 VCSH NW T02940217 55002
Loading
Personal Weather Stations






























Interactive Weather Map New forecast layout! Learn more

10-Day Weather Forecast

Advertisements
Track Severe Weather on mobile